sensor_id;sensor_type;location;lat;lon;timestamp;temperature;humidity
47773;DHT22;33534;51.028;13.716;2024-02-04T00:01:39;19.20;74.80
47773;DHT22;33534;51.028;13.716;2024-02-04T00:04:05;19.20;75.10
47773;DHT22;33534;51.028;13.716;2024-02-04T00:06:30;19.20;75.10
47773;DHT22;33534;51.028;13.716;2024-02-04T00:08:56;19.20;75.20
47773;DHT22;33534;51.028;13.716;2024-02-04T00:11:22;19.20;75.20
47773;DHT22;33534;51.028;13.716;2024-02-04T00:13:48;19.20;75.40
47773;DHT22;33534;51.028;13.716;2024-02-04T00:16:14;19.20;75.50
47773;DHT22;33534;51.028;13.716;2024-02-04T00:18:39;19.20;75.50
47773;DHT22;33534;51.028;13.716;2024-02-04T00:21:05;19.20;75.60
47773;DHT22;33534;51.028;13.716;2024-02-04T00:23:30;19.20;75.50
47773;DHT22;33534;51.028;13.716;2024-02-04T00:25:56;19.20;75.60
47773;DHT22;33534;51.028;13.716;2024-02-04T00:28:22;19.20;75.50
47773;DHT22;33534;51.028;13.716;2024-02-04T00:30:47;19.20;75.70
47773;DHT22;33534;51.028;13.716;2024-02-04T00:33:15;19.20;75.60
47773;DHT22;33534;51.028;13.716;2024-02-04T00:35:41;19.20;75.70
47773;DHT22;33534;51.028;13.716;2024-02-04T00:38:07;19.20;75.80
47773;DHT22;33534;51.028;13.716;2024-02-04T00:40:34;19.20;75.80
47773;DHT22;33534;51.028;13.716;2024-02-04T00:43:00;19.20;75.90
47773;DHT22;33534;51.028;13.716;2024-02-04T00:45:25;19.20;75.70
47773;DHT22;33534;51.028;13.716;2024-02-04T00:47:51;19.20;75.90
47773;DHT22;33534;51.028;13.716;2024-02-04T00:50:17;19.20;76.10
47773;DHT22;33534;51.028;13.716;2024-02-04T00:52:42;19.20;76.10
47773;DHT22;33534;51.028;13.716;2024-02-04T00:55:08;19.20;76.20
47773;DHT22;33534;51.028;13.716;2024-02-04T00:57:34;19.20;76.10
47773;DHT22;33534;51.028;13.716;2024-02-04T00:59:59;19.20;76.20
47773;DHT22;33534;51.028;13.716;2024-02-04T01:02:25;19.20;76.60
47773;DHT22;33534;51.028;13.716;2024-02-04T01:04:51;19.20;76.60
47773;DHT22;33534;51.028;13.716;2024-02-04T01:07:17;19.20;76.60
47773;DHT22;33534;51.028;13.716;2024-02-04T01:09:42;19.20;76.50
47773;DHT22;33534;51.028;13.716;2024-02-04T01:12:08;19.20;76.60
47773;DHT22;33534;51.028;13.716;2024-02-04T01:14:34;19.20;76.70
47773;DHT22;33534;51.028;13.716;2024-02-04T01:17:00;19.20;76.60
47773;DHT22;33534;51.028;13.716;2024-02-04T01:19:25;19.20;76.50
47773;DHT22;33534;51.028;13.716;2024-02-04T01:21:51;19.20;76.80
47773;DHT22;33534;51.028;13.716;2024-02-04T01:24:17;19.20;76.60
47773;DHT22;33534;51.028;13.716;2024-02-04T01:26:42;19.20;76.70
47773;DHT22;33534;51.028;13.716;2024-02-04T01:29:08;19.20;76.80
47773;DHT22;33534;51.028;13.716;2024-02-04T01:31:34;19.20;76.70
47773;DHT22;33534;51.028;13.716;2024-02-04T01:33:59;19.20;76.80
47773;DHT22;33534;51.028;13.716;2024-02-04T01:36:25;19.20;76.80
47773;DHT22;33534;51.028;13.716;2024-02-04T01:38:51;19.20;76.70
47773;DHT22;33534;51.028;13.716;2024-02-04T01:41:16;19.20;76.80
47773;DHT22;33534;51.028;13.716;2024-02-04T01:43:42;19.20;76.80
47773;DHT22;33534;51.028;13.716;2024-02-04T01:46:08;19.20;76.60
47773;DHT22;33534;51.028;13.716;2024-02-04T01:48:34;19.20;76.70
47773;DHT22;33534;51.028;13.716;2024-02-04T01:51:00;19.20;76.70
47773;DHT22;33534;51.028;13.716;2024-02-04T01:53:28;19.20;76.70
47773;DHT22;33534;51.028;13.716;2024-02-04T01:55:55;19.20;76.70
47773;DHT22;33534;51.028;13.716;2024-02-04T01:58:21;19.20;76.90
47773;DHT22;33534;51.028;13.716;2024-02-04T02:00:48;19.30;77.20
47773;DHT22;33534;51.028;13.716;2024-02-04T02:03:15;19.30;76.70
47773;DHT22;33534;51.028;13.716;2024-02-04T02:05:41;19.30;76.80
47773;DHT22;33534;51.028;13.716;2024-02-04T02:08:07;19.30;76.90
47773;DHT22;33534;51.028;13.716;2024-02-04T02:10:32;19.30;77.00
47773;DHT22;33534;51.028;13.716;2024-02-04T02:13:22;19.30;77.00
47773;DHT22;33534;51.028;13.716;2024-02-04T02:15:52;19.30;76.90
47773;DHT22;33534;51.028;13.716;2024-02-04T02:18:27;19.30;77.10
47773;DHT22;33534;51.028;13.716;2024-02-04T02:21:16;19.30;77.20
47773;DHT22;33534;51.028;13.716;2024-02-04T02:26:33;19.30;77.40
47773;DHT22;33534;51.028;13.716;2024-02-04T02:29:03;19.30;77.30
47773;DHT22;33534;51.028;13.716;2024-02-04T02:31:29;19.30;77.60
47773;DHT22;33534;51.028;13.716;2024-02-04T02:33:54;19.30;77.70
47773;DHT22;33534;51.028;13.716;2024-02-04T02:36:21;19.30;77.70
47773;DHT22;33534;51.028;13.716;2024-02-04T02:41:49;19.30;77.80
47773;DHT22;33534;51.028;13.716;2024-02-04T02:44:16;19.30;77.90
47773;DHT22;33534;51.028;13.716;2024-02-04T02:46:42;19.30;78.00
47773;DHT22;33534;51.028;13.716;2024-02-04T02:49:09;19.30;78.10
47773;DHT22;33534;51.028;13.716;2024-02-04T02:51:35;19.30;78.10
47773;DHT22;33534;51.028;13.716;2024-02-04T02:54:01;19.30;78.20
47773;DHT22;33534;51.028;13.716;2024-02-04T02:56:26;19.30;78.10
47773;DHT22;33534;51.028;13.716;2024-02-04T02:58:52;19.30;78.20
47773;DHT22;33534;51.028;13.716;2024-02-04T03:01:17;19.30;78.40
47773;DHT22;33534;51.028;13.716;2024-02-04T03:03:43;19.30;78.50
47773;DHT22;33534;51.028;13.716;2024-02-04T03:06:08;19.30;78.40
47773;DHT22;33534;51.028;13.716;2024-02-04T03:08:34;19.30;78.40
47773;DHT22;33534;51.028;13.716;2024-02-04T03:11:00;19.30;78.30
47773;DHT22;33534;51.028;13.716;2024-02-04T03:13:25;19.30;78.40
47773;DHT22;33534;51.028;13.716;2024-02-04T03:15:51;19.30;78.40
47773;DHT22;33534;51.028;13.716;2024-02-04T03:18:16;19.30;78.30
47773;DHT22;33534;51.028;13.716;2024-02-04T03:20:42;19.30;78.30
47773;DHT22;33534;51.028;13.716;2024-02-04T03:23:07;19.30;78.40
47773;DHT22;33534;51.028;13.716;2024-02-04T03:25:33;19.30;78.30
47773;DHT22;33534;51.028;13.716;2024-02-04T03:27:59;19.30;78.30
47773;DHT22;33534;51.028;13.716;2024-02-04T03:30:24;19.30;78.50
47773;DHT22;33534;51.028;13.716;2024-02-04T03:32:50;19.30;78.60
47773;DHT22;33534;51.028;13.716;2024-02-04T03:35:15;19.30;78.50
47773;DHT22;33534;51.028;13.716;2024-02-04T03:37:41;19.30;78.50
47773;DHT22;33534;51.028;13.716;2024-02-04T03:40:07;19.30;78.60
47773;DHT22;33534;51.028;13.716;2024-02-04T03:42:33;19.30;78.50
47773;DHT22;33534;51.028;13.716;2024-02-04T03:44:58;19.30;78.50
47773;DHT22;33534;51.028;13.716;2024-02-04T03:47:24;19.30;78.80
47773;DHT22;33534;51.028;13.716;2024-02-04T03:49:49;19.30;78.60
47773;DHT22;33534;51.028;13.716;2024-02-04T03:52:15;19.30;78.50
47773;DHT22;33534;51.028;13.716;2024-02-04T03:54:41;19.40;78.50
47773;DHT22;33534;51.028;13.716;2024-02-04T03:57:06;19.30;78.50
47773;DHT22;33534;51.028;13.716;2024-02-04T03:59:32;19.30;78.60
47773;DHT22;33534;51.028;13.716;2024-02-04T04:01:57;19.30;78.60
47773;DHT22;33534;51.028;13.716;2024-02-04T04:04:23;19.30;78.50
47773;DHT22;33534;51.028;13.716;2024-02-04T04:06:49;19.30;78.60
47773;DHT22;33534;51.028;13.716;2024-02-04T04:09:14;19.30;78.80
47773;DHT22;33534;51.028;13.716;2024-02-04T04:11:40;19.30;78.70
47773;DHT22;33534;51.028;13.716;2024-02-04T04:14:06;19.30;78.70
47773;DHT22;33534;51.028;13.716;2024-02-04T04:16:31;19.30;78.70
47773;DHT22;33534;51.028;13.716;2024-02-04T04:18:57;19.30;78.60
47773;DHT22;33534;51.028;13.716;2024-02-04T04:21:24;19.40;78.80
47773;DHT22;33534;51.028;13.716;2024-02-04T04:23:49;19.30;78.80
47773;DHT22;33534;51.028;13.716;2024-02-04T04:26:15;19.30;79.00
47773;DHT22;33534;51.028;13.716;2024-02-04T04:28:41;19.40;78.80
47773;DHT22;33534;51.028;13.716;2024-02-04T04:31:06;19.30;78.80
47773;DHT22;33534;51.028;13.716;2024-02-04T04:33:32;19.40;78.80
47773;DHT22;33534;51.028;13.716;2024-02-04T04:35:58;19.30;78.80
47773;DHT22;33534;51.028;13.716;2024-02-04T04:38:23;19.30;78.80
47773;DHT22;33534;51.028;13.716;2024-02-04T04:40:49;19.30;78.90
47773;DHT22;33534;51.028;13.716;2024-02-04T04:43:14;19.40;78.80
47773;DHT22;33534;51.028;13.716;2024-02-04T04:45:40;19.30;78.80
47773;DHT22;33534;51.028;13.716;2024-02-04T04:48:06;19.40;78.90
47773;DHT22;33534;51.028;13.716;2024-02-04T04:50:34;19.40;79.00
47773;DHT22;33534;51.028;13.716;2024-02-04T04:52:59;19.40;79.00
47773;DHT22;33534;51.028;13.716;2024-02-04T04:55:25;19.40;78.90
47773;DHT22;33534;51.028;13.716;2024-02-04T04:57:50;19.40;78.90
47773;DHT22;33534;51.028;13.716;2024-02-04T05:00:17;19.40;78.90
47773;DHT22;33534;51.028;13.716;2024-02-04T05:02:43;19.40;78.90
47773;DHT22;33534;51.028;13.716;2024-02-04T05:05:12;19.40;78.90
47773;DHT22;33534;51.028;13.716;2024-02-04T05:07:39;19.40;78.90
47773;DHT22;33534;51.028;13.716;2024-02-04T05:10:06;19.40;78.90
47773;DHT22;33534;51.028;13.716;2024-02-04T05:12:32;19.40;78.90
47773;DHT22;33534;51.028;13.716;2024-02-04T05:14:58;19.40;79.00
47773;DHT22;33534;51.028;13.716;2024-02-04T05:17:26;19.40;79.00
47773;DHT22;33534;51.028;13.716;2024-02-04T05:19:52;19.40;78.80
47773;DHT22;33534;51.028;13.716;2024-02-04T05:22:17;19.40;78.80
47773;DHT22;33534;51.028;13.716;2024-02-04T05:24:43;19.40;78.90
47773;DHT22;33534;51.028;13.716;2024-02-04T05:27:08;19.40;79.00
47773;DHT22;33534;51.028;13.716;2024-02-04T05:29:34;19.40;78.90
47773;DHT22;33534;51.028;13.716;2024-02-04T05:32:00;19.40;78.90
47773;DHT22;33534;51.028;13.716;2024-02-04T05:34:25;19.40;78.90
47773;DHT22;33534;51.028;13.716;2024-02-04T05:36:51;19.40;79.00
47773;DHT22;33534;51.028;13.716;2024-02-04T05:39:16;19.40;79.00
47773;DHT22;33534;51.028;13.716;2024-02-04T05:41:42;19.40;79.10
47773;DHT22;33534;51.028;13.716;2024-02-04T05:44:08;19.40;79.10
47773;DHT22;33534;51.028;13.716;2024-02-04T05:46:38;19.40;79.10
47773;DHT22;33534;51.028;13.716;2024-02-04T05:49:04;19.40;79.10
47773;DHT22;33534;51.028;13.716;2024-02-04T05:51:38;19.40;79.10
47773;DHT22;33534;51.028;13.716;2024-02-04T05:54:04;19.40;79.10
47773;DHT22;33534;51.028;13.716;2024-02-04T05:56:30;19.40;79.30
47773;DHT22;33534;51.028;13.716;2024-02-04T05:58:55;19.40;79.20
47773;DHT22;33534;51.028;13.716;2024-02-04T06:01:21;19.40;79.40
47773;DHT22;33534;51.028;13.716;2024-02-04T06:03:46;19.40;79.30
47773;DHT22;33534;51.028;13.716;2024-02-04T06:06:16;19.40;79.40
47773;DHT22;33534;51.028;13.716;2024-02-04T06:08:42;19.40;79.40
47773;DHT22;33534;51.028;13.716;2024-02-04T06:11:12;19.40;79.50
47773;DHT22;33534;51.028;13.716;2024-02-04T06:13:41;19.40;79.40
47773;DHT22;33534;51.028;13.716;2024-02-04T06:16:08;19.40;79.60
47773;DHT22;33534;51.028;13.716;2024-02-04T06:18:35;19.40;79.50
47773;DHT22;33534;51.028;13.716;2024-02-04T06:21:03;19.40;79.40
47773;DHT22;33534;51.028;13.716;2024-02-04T06:23:29;19.40;79.50
47773;DHT22;33534;51.028;13.716;2024-02-04T06:25:54;19.40;79.50
47773;DHT22;33534;51.028;13.716;2024-02-04T06:28:20;19.40;79.40
47773;DHT22;33534;51.028;13.716;2024-02-04T06:30:46;19.40;79.50
47773;DHT22;33534;51.028;13.716;2024-02-04T06:33:11;19.40;79.50
47773;DHT22;33534;51.028;13.716;2024-02-04T06:35:37;19.40;79.50
47773;DHT22;33534;51.028;13.716;2024-02-04T06:38:03;19.40;79.50
47773;DHT22;33534;51.028;13.716;2024-02-04T06:40:28;19.40;79.50
47773;DHT22;33534;51.028;13.716;2024-02-04T06:42:54;19.40;79.50
47773;DHT22;33534;51.028;13.716;2024-02-04T06:45:19;19.40;79.50
47773;DHT22;33534;51.028;13.716;2024-02-04T06:47:45;19.40;79.50
47773;DHT22;33534;51.028;13.716;2024-02-04T06:50:11;19.40;79.50
47773;DHT22;33534;51.028;13.716;2024-02-04T06:52:40;19.40;79.70
47773;DHT22;33534;51.028;13.716;2024-02-04T06:55:06;19.40;79.60
47773;DHT22;33534;51.028;13.716;2024-02-04T06:57:32;19.40;79.60
47773;DHT22;33534;51.028;13.716;2024-02-04T06:59:58;19.40;79.60
47773;DHT22;33534;51.028;13.716;2024-02-04T07:02:23;19.40;79.60
47773;DHT22;33534;51.028;13.716;2024-02-04T07:04:49;19.40;79.60
47773;DHT22;33534;51.028;13.716;2024-02-04T07:07:14;19.40;79.50
47773;DHT22;33534;51.028;13.716;2024-02-04T07:09:40;19.40;79.60
47773;DHT22;33534;51.028;13.716;2024-02-04T07:12:05;19.40;79.60
47773;DHT22;33534;51.028;13.716;2024-02-04T07:14:31;19.40;79.60
47773;DHT22;33534;51.028;13.716;2024-02-04T07:16:57;19.40;79.60
47773;DHT22;33534;51.028;13.716;2024-02-04T07:19:22;19.40;79.80
47773;DHT22;33534;51.028;13.716;2024-02-04T07:21:48;19.40;79.70
47773;DHT22;33534;51.028;13.716;2024-02-04T07:24:14;19.40;79.70
47773;DHT22;33534;51.028;13.716;2024-02-04T07:26:39;19.40;79.80
47773;DHT22;33534;51.028;13.716;2024-02-04T07:29:05;19.40;79.70
47773;DHT22;33534;51.028;13.716;2024-02-04T07:31:31;19.50;79.90
47773;DHT22;33534;51.028;13.716;2024-02-04T07:33:56;19.50;79.60
47773;DHT22;33534;51.028;13.716;2024-02-04T07:36:22;19.50;79.60
47773;DHT22;33534;51.028;13.716;2024-02-04T07:38:47;19.50;79.40
47773;DHT22;33534;51.028;13.716;2024-02-04T07:41:14;19.50;79.10
47773;DHT22;33534;51.028;13.716;2024-02-04T07:43:40;19.50;78.90
47773;DHT22;33534;51.028;13.716;2024-02-04T07:46:07;19.50;78.70
47773;DHT22;33534;51.028;13.716;2024-02-04T07:48:33;19.50;79.90
47773;DHT22;33534;51.028;13.716;2024-02-04T07:50:59;19.50;80.00
47773;DHT22;33534;51.028;13.716;2024-02-04T07:53:25;19.50;79.60
47773;DHT22;33534;51.028;13.716;2024-02-04T07:55:50;19.50;79.10
47773;DHT22;33534;51.028;13.716;2024-02-04T07:58:16;19.50;78.10
47773;DHT22;33534;51.028;13.716;2024-02-04T08:00:42;18.80;63.40
47773;DHT22;33534;51.028;13.716;2024-02-04T08:03:07;18.00;61.60
47773;DHT22;33534;51.028;13.716;2024-02-04T08:05:34;17.10;61.60
47773;DHT22;33534;51.028;13.716;2024-02-04T08:08:01;16.20;63.40
47773;DHT22;33534;51.028;13.716;2024-02-04T08:10:26;15.70;65.40
47773;DHT22;33534;51.028;13.716;2024-02-04T08:12:52;15.50;66.30
47773;DHT22;33534;51.028;13.716;2024-02-04T08:15:19;15.80;70.30
47773;DHT22;33534;51.028;13.716;2024-02-04T08:17:45;16.20;72.40
47773;DHT22;33534;51.028;13.716;2024-02-04T08:20:11;16.50;73.50
47773;DHT22;33534;51.028;13.716;2024-02-04T08:22:37;16.90;74.10
47773;DHT22;33534;51.028;13.716;2024-02-04T08:25:04;17.20;74.20
47773;DHT22;33534;51.028;13.716;2024-02-04T08:27:31;17.40;74.40
47773;DHT22;33534;51.028;13.716;2024-02-04T08:29:57;17.70;74.30
47773;DHT22;33534;51.028;13.716;2024-02-04T08:32:22;17.90;73.90
47773;DHT22;33534;51.028;13.716;2024-02-04T08:34:48;18.00;74.00
47773;DHT22;33534;51.028;13.716;2024-02-04T08:37:14;18.20;73.80
47773;DHT22;33534;51.028;13.716;2024-02-04T08:39:39;18.30;73.60
47773;DHT22;33534;51.028;13.716;2024-02-04T08:42:05;18.50;73.40
47773;DHT22;33534;51.028;13.716;2024-02-04T08:44:31;18.50;73.20
47773;DHT22;33534;51.028;13.716;2024-02-04T08:46:56;18.60;73.10
47773;DHT22;33534;51.028;13.716;2024-02-04T08:49:22;18.70;73.00
47773;DHT22;33534;51.028;13.716;2024-02-04T08:51:48;18.70;72.90
47773;DHT22;33534;51.028;13.716;2024-02-04T08:54:13;18.80;72.80
47773;DHT22;33534;51.028;13.716;2024-02-04T08:56:40;18.90;72.80
47773;DHT22;33534;51.028;13.716;2024-02-04T08:59:05;18.90;72.70
47773;DHT22;33534;51.028;13.716;2024-02-04T09:01:31;18.90;72.70
47773;DHT22;33534;51.028;13.716;2024-02-04T09:03:57;18.90;72.60
47773;DHT22;33534;51.028;13.716;2024-02-04T09:06:23;19.00;72.60
47773;DHT22;33534;51.028;13.716;2024-02-04T09:08:48;19.00;72.60
47773;DHT22;33534;51.028;13.716;2024-02-04T09:11:14;19.00;72.50
47773;DHT22;33534;51.028;13.716;2024-02-04T09:13:45;19.00;72.60
47773;DHT22;33534;51.028;13.716;2024-02-04T09:16:10;19.00;72.70
47773;DHT22;33534;51.028;13.716;2024-02-04T09:18:36;19.00;73.00
47773;DHT22;33534;51.028;13.716;2024-02-04T09:21:02;19.10;73.20
47773;DHT22;33534;51.028;13.716;2024-02-04T09:23:28;19.20;73.20
47773;DHT22;33534;51.028;13.716;2024-02-04T09:25:53;19.10;73.20
47773;DHT22;33534;51.028;13.716;2024-02-04T09:28:19;19.20;73.20
47773;DHT22;33534;51.028;13.716;2024-02-04T09:30:45;19.20;73.10
47773;DHT22;33534;51.028;13.716;2024-02-04T09:33:13;19.20;73.00
47773;DHT22;33534;51.028;13.716;2024-02-04T09:35:39;19.20;73.00
47773;DHT22;33534;51.028;13.716;2024-02-04T09:38:04;19.20;72.90
47773;DHT22;33534;51.028;13.716;2024-02-04T09:40:30;19.20;72.90
47773;DHT22;33534;51.028;13.716;2024-02-04T09:42:57;19.20;72.80
47773;DHT22;33534;51.028;13.716;2024-02-04T09:45:23;19.20;72.80
47773;DHT22;33534;51.028;13.716;2024-02-04T09:47:50;19.20;72.80
47773;DHT22;33534;51.028;13.716;2024-02-04T09:50:19;19.20;72.70
47773;DHT22;33534;51.028;13.716;2024-02-04T09:52:49;19.20;72.70
47773;DHT22;33534;51.028;13.716;2024-02-04T09:55:16;19.20;72.70
47773;DHT22;33534;51.028;13.716;2024-02-04T09:57:42;19.20;72.60
47773;DHT22;33534;51.028;13.716;2024-02-04T10:00:09;19.20;72.60
47773;DHT22;33534;51.028;13.716;2024-02-04T10:02:36;19.20;72.60
47773;DHT22;33534;51.028;13.716;2024-02-04T10:05:01;19.20;72.60
47773;DHT22;33534;51.028;13.716;2024-02-04T10:07:28;19.20;72.60
47773;DHT22;33534;51.028;13.716;2024-02-04T10:09:55;19.20;72.60
47773;DHT22;33534;51.028;13.716;2024-02-04T10:12:21;19.20;72.60
47773;DHT22;33534;51.028;13.716;2024-02-04T10:14:49;19.20;72.70
47773;DHT22;33534;51.028;13.716;2024-02-04T10:17:15;19.20;72.60
47773;DHT22;33534;51.028;13.716;2024-02-04T10:19:41;19.20;72.70
47773;DHT22;33534;51.028;13.716;2024-02-04T10:22:07;19.20;72.60
47773;DHT22;33534;51.028;13.716;2024-02-04T10:24:35;19.20;72.60
47773;DHT22;33534;51.028;13.716;2024-02-04T10:27:01;19.20;72.60
47773;DHT22;33534;51.028;13.716;2024-02-04T10:29:27;19.20;72.60
47773;DHT22;33534;51.028;13.716;2024-02-04T10:31:56;19.20;72.60
47773;DHT22;33534;51.028;13.716;2024-02-04T10:34:23;19.20;72.60
47773;DHT22;33534;51.028;13.716;2024-02-04T10:36:49;19.10;72.60
47773;DHT22;33534;51.028;13.716;2024-02-04T10:39:14;19.10;72.60
47773;DHT22;33534;51.028;13.716;2024-02-04T10:41:48;19.20;72.70
47773;DHT22;33534;51.028;13.716;2024-02-04T10:44:17;19.10;72.70
47773;DHT22;33534;51.028;13.716;2024-02-04T10:46:46;19.20;72.60
47773;DHT22;33534;51.028;13.716;2024-02-04T10:49:14;19.10;72.70
47773;DHT22;33534;51.028;13.716;2024-02-04T10:51:41;19.20;72.70
47773;DHT22;33534;51.028;13.716;2024-02-04T10:54:08;19.20;72.70
47773;DHT22;33534;51.028;13.716;2024-02-04T10:56:38;19.10;72.70
47773;DHT22;33534;51.028;13.716;2024-02-04T10:59:07;19.10;72.70
47773;DHT22;33534;51.028;13.716;2024-02-04T11:01:35;19.10;72.70
47773;DHT22;33534;51.028;13.716;2024-02-04T11:04:02;19.10;72.70
47773;DHT22;33534;51.028;13.716;2024-02-04T11:06:29;19.20;72.70
47773;DHT22;33534;51.028;13.716;2024-02-04T11:08:56;19.10;72.70
47773;DHT22;33534;51.028;13.716;2024-02-04T11:11:24;19.10;72.70
47773;DHT22;33534;51.028;13.716;2024-02-04T11:13:55;19.10;72.70
47773;DHT22;33534;51.028;13.716;2024-02-04T11:16:38;19.10;72.70
47773;DHT22;33534;51.028;13.716;2024-02-04T11:19:11;19.10;72.70
47773;DHT22;33534;51.028;13.716;2024-02-04T11:24:34;19.10;72.70
47773;DHT22;33534;51.028;13.716;2024-02-04T11:27:06;19.10;72.60
47773;DHT22;33534;51.028;13.716;2024-02-04T11:29:31;19.10;72.60
47773;DHT22;33534;51.028;13.716;2024-02-04T11:31:58;19.10;72.60
47773;DHT22;33534;51.028;13.716;2024-02-04T11:34:24;19.10;72.60
47773;DHT22;33534;51.028;13.716;2024-02-04T11:36:49;19.10;72.60
47773;DHT22;33534;51.028;13.716;2024-02-04T11:39:18;19.10;72.50
47773;DHT22;33534;51.028;13.716;2024-02-04T11:41:49;19.10;72.60
47773;DHT22;33534;51.028;13.716;2024-02-04T11:44:21;19.10;72.60
47773;DHT22;33534;51.028;13.716;2024-02-04T11:46:48;19.10;72.60
47773;DHT22;33534;51.028;13.716;2024-02-04T11:49:18;19.10;72.60
47773;DHT22;33534;51.028;13.716;2024-02-04T11:51:48;19.10;72.50
47773;DHT22;33534;51.028;13.716;2024-02-04T11:54:18;19.10;72.60
47773;DHT22;33534;51.028;13.716;2024-02-04T11:56:50;19.10;72.50
47773;DHT22;33534;51.028;13.716;2024-02-04T11:59:23;19.10;72.60
47773;DHT22;33534;51.028;13.716;2024-02-04T12:01:56;19.10;72.60
47773;DHT22;33534;51.028;13.716;2024-02-04T12:04:23;19.10;72.60
47773;DHT22;33534;51.028;13.716;2024-02-04T12:06:50;19.10;72.60
47773;DHT22;33534;51.028;13.716;2024-02-04T12:09:17;19.10;72.60
47773;DHT22;33534;51.028;13.716;2024-02-04T12:11:44;19.10;72.70
47773;DHT22;33534;51.028;13.716;2024-02-04T12:14:10;19.10;72.70
47773;DHT22;33534;51.028;13.716;2024-02-04T12:16:36;19.10;72.70
47773;DHT22;33534;51.028;13.716;2024-02-04T12:19:02;19.00;72.70
47773;DHT22;33534;51.028;13.716;2024-02-04T12:21:32;19.10;72.70
47773;DHT22;33534;51.028;13.716;2024-02-04T12:23:59;19.10;72.70
47773;DHT22;33534;51.028;13.716;2024-02-04T12:26:25;19.10;72.80
47773;DHT22;33534;51.028;13.716;2024-02-04T12:28:51;19.10;72.70
47773;DHT22;33534;51.028;13.716;2024-02-04T12:31:18;19.00;72.70
47773;DHT22;33534;51.028;13.716;2024-02-04T12:33:52;19.10;72.80
47773;DHT22;33534;51.028;13.716;2024-02-04T12:36:18;19.10;72.70
47773;DHT22;33534;51.028;13.716;2024-02-04T12:38:51;19.00;72.80
47773;DHT22;33534;51.028;13.716;2024-02-04T12:41:17;19.00;72.70
47773;DHT22;33534;51.028;13.716;2024-02-04T12:46:16;19.10;73.00
47773;DHT22;33534;51.028;13.716;2024-02-04T12:48:42;19.10;73.10
47773;DHT22;33534;51.028;13.716;2024-02-04T12:51:08;19.10;73.20
47773;DHT22;33534;51.028;13.716;2024-02-04T12:53:37;19.10;73.40
47773;DHT22;33534;51.028;13.716;2024-02-04T12:56:02;19.10;73.40
47773;DHT22;33534;51.028;13.716;2024-02-04T12:58:28;19.20;73.50
47773;DHT22;33534;51.028;13.716;2024-02-04T13:01:00;19.20;73.40
47773;DHT22;33534;51.028;13.716;2024-02-04T13:03:27;19.20;73.50
47773;DHT22;33534;51.028;13.716;2024-02-04T13:05:57;19.20;73.10
47773;DHT22;33534;51.028;13.716;2024-02-04T13:08:24;19.20;73.40
47773;DHT22;33534;51.028;13.716;2024-02-04T13:10:57;19.20;73.60
47773;DHT22;33534;51.028;13.716;2024-02-04T13:13:22;19.20;73.50
47773;DHT22;33534;51.028;13.716;2024-02-04T13:15:53;19.20;73.40
47773;DHT22;33534;51.028;13.716;2024-02-04T13:18:19;19.20;73.40
47773;DHT22;33534;51.028;13.716;2024-02-04T13:20:45;19.10;73.20
47773;DHT22;33534;51.028;13.716;2024-02-04T13:23:13;19.10;73.10
47773;DHT22;33534;51.028;13.716;2024-02-04T13:25:39;19.20;73.00
47773;DHT22;33534;51.028;13.716;2024-02-04T13:28:05;19.10;72.90
47773;DHT22;33534;51.028;13.716;2024-02-04T13:30:31;19.20;72.90
47773;DHT22;33534;51.028;13.716;2024-02-04T13:32:56;19.20;72.90
47773;DHT22;33534;51.028;13.716;2024-02-04T13:35:23;19.20;72.80
47773;DHT22;33534;51.028;13.716;2024-02-04T13:37:49;19.10;72.80
47773;DHT22;33534;51.028;13.716;2024-02-04T13:40:20;19.10;72.70
47773;DHT22;33534;51.028;13.716;2024-02-04T13:42:47;19.10;72.70
47773;DHT22;33534;51.028;13.716;2024-02-04T13:45:13;19.10;72.60
47773;DHT22;33534;51.028;13.716;2024-02-04T13:47:42;19.10;72.60
47773;DHT22;33534;51.028;13.716;2024-02-04T13:50:10;19.10;72.70
47773;DHT22;33534;51.028;13.716;2024-02-04T13:52:36;19.10;72.60
47773;DHT22;33534;51.028;13.716;2024-02-04T13:55:03;19.10;72.60
47773;DHT22;33534;51.028;13.716;2024-02-04T13:57:32;19.10;72.60
47773;DHT22;33534;51.028;13.716;2024-02-04T13:59:58;19.10;72.70
47773;DHT22;33534;51.028;13.716;2024-02-04T14:02:24;19.10;72.70
47773;DHT22;33534;51.028;13.716;2024-02-04T14:04:52;19.20;72.70
47773;DHT22;33534;51.028;13.716;2024-02-04T14:07:18;19.10;72.80
47773;DHT22;33534;51.028;13.716;2024-02-04T14:09:44;19.20;72.80
47773;DHT22;33534;51.028;13.716;2024-02-04T14:12:09;19.20;72.90
47773;DHT22;33534;51.028;13.716;2024-02-04T14:14:37;19.20;72.90
47773;DHT22;33534;51.028;13.716;2024-02-04T14:17:02;19.10;72.90
47773;DHT22;33534;51.028;13.716;2024-02-04T14:19:28;19.10;72.90
47773;DHT22;33534;51.028;13.716;2024-02-04T14:21:54;19.10;72.80
47773;DHT22;33534;51.028;13.716;2024-02-04T14:24:20;19.10;72.90
47773;DHT22;33534;51.028;13.716;2024-02-04T14:26:45;19.10;72.80
47773;DHT22;33534;51.028;13.716;2024-02-04T14:29:11;19.10;72.90
47773;DHT22;33534;51.028;13.716;2024-02-04T14:31:37;19.10;72.90
47773;DHT22;33534;51.028;13.716;2024-02-04T14:34:02;19.10;72.90
47773;DHT22;33534;51.028;13.716;2024-02-04T14:36:28;19.10;72.80
47773;DHT22;33534;51.028;13.716;2024-02-04T14:38:55;19.10;72.90
47773;DHT22;33534;51.028;13.716;2024-02-04T14:41:21;19.10;72.80
47773;DHT22;33534;51.028;13.716;2024-02-04T14:43:47;19.10;72.80
47773;DHT22;33534;51.028;13.716;2024-02-04T14:46:13;19.10;72.80
47773;DHT22;33534;51.028;13.716;2024-02-04T14:48:38;19.00;72.80
47773;DHT22;33534;51.028;13.716;2024-02-04T14:51:05;19.10;72.80
47773;DHT22;33534;51.028;13.716;2024-02-04T14:53:30;19.00;72.80
47773;DHT22;33534;51.028;13.716;2024-02-04T14:55:56;19.00;72.80
47773;DHT22;33534;51.028;13.716;2024-02-04T14:58:22;19.00;72.80
47773;DHT22;33534;51.028;13.716;2024-02-04T15:00:48;19.00;72.80
47773;DHT22;33534;51.028;13.716;2024-02-04T15:03:14;19.00;72.80
47773;DHT22;33534;51.028;13.716;2024-02-04T15:05:42;19.00;72.80
47773;DHT22;33534;51.028;13.716;2024-02-04T15:08:08;19.00;72.80
47773;DHT22;33534;51.028;13.716;2024-02-04T15:10:34;19.00;72.80
47773;DHT22;33534;51.028;13.716;2024-02-04T15:13:00;19.10;72.80
47773;DHT22;33534;51.028;13.716;2024-02-04T15:15:26;19.00;72.80
47773;DHT22;33534;51.028;13.716;2024-02-04T15:17:51;19.10;72.80
47773;DHT22;33534;51.028;13.716;2024-02-04T15:20:17;19.00;72.80
47773;DHT22;33534;51.028;13.716;2024-02-04T15:22:44;19.00;72.80